KPAH/PAH METAR and TAF weather

Enter ICAO airport designator
Station Type Date Time Source
KPAH METAR 2019/06/27 09:53 UTC NOAA

KPAH 270953Z AUTO 23004KT 10SM CLR 20/18 A3017 RMK AO2 SLP212 T02000183 $


Station Type Date Time Source
KPAH Decoded METAR 2019/06/27 09:53 UTC NOAA

BARKLEY REGIONAL AIRPORT, KY, United States (KPAH) 37-03N 088-46W 118M
Jun 27, 2019 - 05:53 AM EDT / 2019.06.27 0953 UTC
Wind: from the SW (230 degrees) at 5 MPH (4 KT):0
Visibility: 10 mile(s):0
Sky conditions: clear
Temperature: 68.0 F (20.0 C)
Dew Point: 64.9 F (18.3 C)
Relative Humidity: 89%
Pressure (altimeter): 30.17 in. Hg (1021 hPa)
ob: KPAH 270953Z AUTO 23004KT 10SM CLR 20/18 A3017 RMK AO2 SLP212 T02000183
cycle: 10

Station Type Date Time Source
KPAH TAF 2019/06/27 06:22 UTC NOAA

TAF KPAH 270520Z 2706/2806 00000KT P6SM BKN200
FM271000 00000KT P6SM VCSH BKN100
FM271500 21005KT P6SM BKN150
FM271800 18005KT P6SM VCTS SCT040CB BKN120
FM280000 00000KT P6SM BKN150

Example: see airport list